Time;durP1;ratioP1;P1;durP2;ratioP2;P2;SDS_P1;SDS_P2;PMS_P1;PMS_P2;Temp;Humidity;BMP_temperature;BMP_pressure;BME280_temperature;BME280_humidity;BME280_pressure;Samples;Min_cycle;Max_cycle;Signal;HPM_P1;HPM_P2
2023/10/04 00:00:23;;;;;;;2.47;1.17;;;;;;;;;;5083151;28;20908;-80
2023/10/04 00:02:50;;;;;;;1.83;1.48;;;;;;;;;;5083036;28;20434;-80
2023/10/04 00:05:16;;;;;;;1.83;1.45;;;;;;;;;;5069357;28;20492;-80
2023/10/04 00:07:43;;;;;;;1.67;1.40;;;;;;;;;;5081160;28;20516;-80
2023/10/04 00:10:09;;;;;;;1.80;1.30;;;;;;;;;;5082498;28;20502;-80
2023/10/04 00:12:35;;;;;;;1.80;1.40;;;;;;;;;;5083798;28;20398;-81
2023/10/04 00:15:04;;;;;;;2.25;1.50;;;;;;;;;;5085297;28;20390;-81
2023/10/04 00:17:30;;;;;;;1.92;1.23;;;;;;;;;;5091695;28;20469;-81
2023/10/04 00:19:56;;;;;;;1.45;1.30;;;;;;;;;;5087340;28;20410;-81
2023/10/04 00:22:23;;;;;;;1.45;1.10;;;;;;;;;;5082473;28;20383;-81
2023/10/04 00:24:51;;;;;;;1.75;1.40;;;;;;;;;;5092204;28;20488;-81
2023/10/04 00:27:18;;;;;;;1.60;1.17;;;;;;;;;;5085224;28;20952;-81
2023/10/04 00:29:44;;;;;;;2.08;1.33;;;;;;;;;;5076758;28;20401;-81
2023/10/04 00:32:13;;;;;;;1.90;1.30;;;;;;;;;;5095724;28;20779;-81
2023/10/04 00:34:40;;;;;;;2.65;1.40;;;;;;;;;;5060413;28;20392;-82
2023/10/04 00:37:07;;;;;;;1.80;1.10;;;;;;;;;;5092252;28;20461;-82
2023/10/04 00:39:34;;;;;;;2.55;1.25;;;;;;;;;;5090723;28;20384;-82
2023/10/04 00:42:00;;;;;;;1.92;1.20;;;;;;;;;;5083701;28;20431;-82
2023/10/04 00:44:26;;;;;;;2.30;1.30;;;;;;;;;;5096013;28;20492;-82
2023/10/04 00:46:53;;;;;;;1.60;1.20;;;;;;;;;;5078117;28;20866;-81
2023/10/04 00:49:19;;;;;;;1.40;1.10;;;;;;;;;;5096524;28;20397;-81
2023/10/04 00:51:46;;;;;;;1.90;1.20;;;;;;;;;;5095869;28;20378;-82
2023/10/04 00:54:12;;;;;;;2.10;1.20;;;;;;;;;;5096689;28;20378;-82
2023/10/04 00:56:38;;;;;;;1.30;1.05;;;;;;;;;;5096880;28;20382;-81
2023/10/04 00:59:05;;;;;;;1.83;1.20;;;;;;;;;;5094089;28;20468;-82
2023/10/04 01:01:34;;;;;;;1.77;1.30;;;;;;;;;;5059734;28;20407;-82
2023/10/04 01:04:00;;;;;;;1.65;1.33;;;;;;;;;;5077589;28;20429;-82
2023/10/04 01:06:27;;;;;;;2.00;1.20;;;;;;;;;;5096302;28;20441;-81
2023/10/04 01:08:55;;;;;;;1.90;1.30;;;;;;;;;;5096111;28;20731;-82
2023/10/04 01:11:22;;;;;;;2.00;1.15;;;;;;;;;;5096070;28;20367;-82
2023/10/04 01:13:48;;;;;;;1.48;1.27;;;;;;;;;;5077633;28;20386;-81
2023/10/04 01:16:15;;;;;;;1.92;1.20;;;;;;;;;;5096223;28;20374;-82
2023/10/04 01:18:44;;;;;;;1.40;1.20;;;;;;;;;;5096091;28;20374;-81
2023/10/04 01:21:10;;;;;;;2.20;1.50;;;;;;;;;;5086627;28;20388;-82
2023/10/04 01:23:39;;;;;;;1.80;1.20;;;;;;;;;;5080226;28;20401;-81
2023/10/04 01:26:05;;;;;;;1.73;1.20;;;;;;;;;;5093191;28;20406;-82
2023/10/04 01:28:31;;;;;;;1.60;1.30;;;;;;;;;;5078286;28;20479;-81
2023/10/04 01:30:59;;;;;;;2.05;1.30;;;;;;;;;;5081958;28;20380;-81
2023/10/04 01:33:25;;;;;;;1.75;1.30;;;;;;;;;;5080789;28;20388;-81
2023/10/04 01:35:53;;;;;;;2.30;1.50;;;;;;;;;;5091548;28;20387;-82
2023/10/04 01:38:24;;;;;;;1.95;1.27;;;;;;;;;;5079193;28;20430;-82
2023/10/04 01:40:51;;;;;;;1.70;1.30;;;;;;;;;;5067346;28;20396;-81
2023/10/04 01:43:17;;;;;;;2.30;1.40;;;;;;;;;;5068389;28;20430;-81
2023/10/04 01:45:55;;;;;;;1.50;1.30;;;;;;;;;;5079003;28;20480;-81
2023/10/04 01:48:22;;;;;;;2.13;1.30;;;;;;;;;;5060983;28;20453;-81
2023/10/04 01:50:53;;;;;;;2.60;1.30;;;;;;;;;;5092763;28;20441;-81
2023/10/04 01:53:21;;;;;;;1.60;1.30;;;;;;;;;;5099038;28;20824;-81
2023/10/04 01:55:47;;;;;;;1.98;1.10;;;;;;;;;;5084331;28;20909;-81
2023/10/04 01:58:15;;;;;;;1.70;1.30;;;;;;;;;;5088695;28;20876;-81
2023/10/04 02:00:41;;;;;;;1.95;1.27;;;;;;;;;;5085404;28;20382;-81
2023/10/04 02:03:09;;;;;;;1.77;1.30;;;;;;;;;;5068511;28;20405;-81
2023/10/04 02:05:40;;;;;;;1.90;1.33;;;;;;;;;;5085562;28;20465;-81
2023/10/04 02:08:08;;;;;;;2.13;1.30;;;;;;;;;;5065960;28;20394;-81
2023/10/04 02:10:34;;;;;;;1.63;1.30;;;;;;;;;;5093599;28;20382;-81
2023/10/04 02:13:01;;;;;;;1.92;1.30;;;;;;;;;;5071625;28;20894;-82
2023/10/04 02:15:27;;;;;;;1.48;1.13;;;;;;;;;;5092547;28;20453;-81
2023/10/04 02:17:58;;;;;;;1.67;1.25;;;;;;;;;;5090329;28;20425;-81
2023/10/04 02:20:25;;;;;;;1.40;1.20;;;;;;;;;;5080050;28;20390;-81
2023/10/04 02:22:54;;;;;;;1.70;1.30;;;;;;;;;;5099445;28;20373;-81
2023/10/04 02:25:20;;;;;;;1.58;1.30;;;;;;;;;;5097764;28;20409;-81
2023/10/04 02:27:49;;;;;;;1.57;1.30;;;;;;;;;;5068504;28;20395;-82
2023/10/04 02:30:15;;;;;;;2.22;1.40;;;;;;;;;;5083041;28;20388;-81
2023/10/04 02:32:44;;;;;;;2.03;1.40;;;;;;;;;;5078345;28;20761;-81
2023/10/04 02:35:22;;;;;;;1.85;1.27;;;;;;;;;;5078218;28;20411;-81
2023/10/04 02:37:54;;;;;;;2.88;1.70;;;;;;;;;;5062347;28;20384;-81
2023/10/04 02:40:21;;;;;;;1.92;1.55;;;;;;;;;;5090379;28;20786;-81
2023/10/04 02:42:48;;;;;;;1.92;1.33;;;;;;;;;;5097048;28;20445;-81
2023/10/04 02:45:18;;;;;;;2.33;1.40;;;;;;;;;;5087496;28;20912;-81
2023/10/04 02:47:45;;;;;;;1.90;1.30;;;;;;;;;;5077728;28;20392;-81
2023/10/04 02:50:11;;;;;;;1.70;1.30;;;;;;;;;;5084189;28;20841;-81
2023/10/04 02:52:37;;;;;;;2.35;1.45;;;;;;;;;;5078548;28;20388;-82
2023/10/04 02:55:03;;;;;;;1.98;1.20;;;;;;;;;;5064251;28;20392;-81
2023/10/04 02:57:29;;;;;;;1.42;1.23;;;;;;;;;;5087808;28;20386;-82
2023/10/04 02:59:55;;;;;;;1.70;1.30;;;;;;;;;;5083757;28;20469;-81
2023/10/04 03:02:21;;;;;;;2.25;1.55;;;;;;;;;;5091554;28;20374;-81
2023/10/04 03:04:51;;;;;;;2.50;1.30;;;;;;;;;;5075999;28;20751;-81
2023/10/04 03:07:17;;;;;;;1.93;1.20;;;;;;;;;;5083425;28;20389;-81
2023/10/04 03:09:43;;;;;;;2.10;1.27;;;;;;;;;;5090927;28;20469;-81
2023/10/04 03:12:10;;;;;;;1.85;1.20;;;;;;;;;;5088096;28;20386;-81
2023/10/04 03:14:36;;;;;;;2.30;1.50;;;;;;;;;;5095621;28;20409;-82
2023/10/04 03:17:03;;;;;;;2.00;1.40;;;;;;;;;;5081282;28;20394;-82
2023/10/04 03:19:29;;;;;;;2.53;1.43;;;;;;;;;;5077918;28;20873;-82
2023/10/04 03:21:55;;;;;;;1.90;1.27;;;;;;;;;;5077440;28;20380;-82
2023/10/04 03:24:21;;;;;;;1.88;1.50;;;;;;;;;;5078367;28;20919;-81
2023/10/04 03:26:48;;;;;;;2.70;1.52;;;;;;;;;;5097467;28;20393;-81
2023/10/04 03:29:15;;;;;;;2.35;1.33;;;;;;;;;;5097425;28;20382;-81
2023/10/04 03:31:42;;;;;;;2.13;1.35;;;;;;;;;;5097703;28;20382;-81
2023/10/04 03:34:09;;;;;;;2.00;1.30;;;;;;;;;;5097463;28;20389;-82
2023/10/04 03:36:39;;;;;;;2.60;1.40;;;;;;;;;;5087699;28;20383;-81
2023/10/04 03:39:05;;;;;;;2.88;1.60;;;;;;;;;;5079827;28;20395;-81
2023/10/04 03:41:31;;;;;;;2.40;1.60;;;;;;;;;;5084026;28;20393;-81
2023/10/04 03:43:57;;;;;;;1.55;1.38;;;;;;;;;;5085592;28;20839;-81
2023/10/04 03:46:23;;;;;;;1.77;1.30;;;;;;;;;;5077361;28;20405;-81
2023/10/04 03:48:51;;;;;;;1.70;1.40;;;;;;;;;;5079541;28;20374;-81
2023/10/04 03:51:21;;;;;;;1.67;1.40;;;;;;;;;;5092244;28;20724;-81
2023/10/04 03:53:47;;;;;;;2.27;1.40;;;;;;;;;;5082863;28;20380;-81
2023/10/04 03:56:15;;;;;;;2.30;1.33;;;;;;;;;;5090985;28;20461;-81
2023/10/04 03:58:41;;;;;;;1.98;1.27;;;;;;;;;;5094149;28;20401;-81
2023/10/04 04:01:08;;;;;;;1.90;1.40;;;;;;;;;;5088646;28;20469;-81
2023/10/04 04:03:34;;;;;;;1.38;1.15;;;;;;;;;;5092293;28;20408;-81
2023/10/04 04:06:00;;;;;;;2.38;1.38;;;;;;;;;;5095830;28;20410;-82
2023/10/04 04:08:26;;;;;;;1.85;1.40;;;;;;;;;;5096594;28;20832;-82
2023/10/04 04:10:53;;;;;;;3.25;1.60;;;;;;;;;;5096474;28;20458;-82
2023/10/04 04:13:19;;;;;;;2.28;1.50;;;;;;;;;;5078877;28;20456;-82
2023/10/04 04:15:46;;;;;;;2.72;1.35;;;;;;;;;;5074413;28;20376;-82
2023/10/04 04:18:20;;;;;;;1.85;1.30;;;;;;;;;;5077322;28;20375;-81
2023/10/04 04:20:47;;;;;;;3.30;1.33;;;;;;;;;;5079799;28;20382;-81
2023/10/04 04:23:14;;;;;;;1.80;1.30;;;;;;;;;;5079101;28;20403;-82
2023/10/04 04:25:40;;;;;;;2.10;1.40;;;;;;;;;;5079927;28;20497;-82
2023/10/04 04:28:07;;;;;;;2.80;1.50;;;;;;;;;;5076655;28;20404;-81
2023/10/04 04:30:35;;;;;;;1.80;1.20;;;;;;;;;;5090750;28;20374;-82
2023/10/04 04:33:07;;;;;;;1.98;1.30;;;;;;;;;;5093935;28;20378;-81
2023/10/04 04:38:09;;;;;;;2.28;1.48;;;;;;;;;;5087863;28;20407;-81
2023/10/04 04:40:35;;;;;;;2.03;1.30;;;;;;;;;;5074921;28;20764;-82
2023/10/04 04:43:03;;;;;;;2.30;1.48;;;;;;;;;;5075679;28;20394;-82
2023/10/04 04:45:29;;;;;;;1.90;1.50;;;;;;;;;;5078609;28;20445;-81
2023/10/04 04:47:56;;;;;;;2.17;1.30;;;;;;;;;;5090689;28;20380;-82
2023/10/04 04:50:24;;;;;;;2.83;1.67;;;;;;;;;;5079115;28;20462;-82
2023/10/04 04:52:53;;;;;;;1.55;1.33;;;;;;;;;;5092836;28;20953;-81
2023/10/04 04:55:18;;;;;;;2.10;1.70;;;;;;;;;;5077763;28;20434;-82
2023/10/04 04:57:44;;;;;;;2.90;1.40;;;;;;;;;;5090725;28;20382;-81
2023/10/04 05:00:31;;;;;;;2.80;1.60;;;;;;;;;;5078482;28;20753;-81
2023/10/04 05:02:57;;;;;;;1.63;1.30;;;;;;;;;;5091261;28;20384;-82
2023/10/04 05:05:23;;;;;;;2.42;1.42;;;;;;;;;;5095660;28;20455;-82
2023/10/04 05:07:50;;;;;;;3.22;1.50;;;;;;;;;;5095075;28;20381;-82
2023/10/04 05:10:18;;;;;;;2.58;1.38;;;;;;;;;;5075343;28;20394;-81
2023/10/04 05:12:47;;;;;;;2.33;1.90;;;;;;;;;;5075015;28;20397;-81
2023/10/04 05:15:23;;;;;;;1.83;1.50;;;;;;;;;;5074801;28;20384;-82
2023/10/04 05:17:50;;;;;;;1.60;1.30;;;;;;;;;;5074334;28;20379;-82
2023/10/04 05:20:21;;;;;;;2.78;1.42;;;;;;;;;;5075159;28;20380;-82
2023/10/04 05:22:52;;;;;;;1.42;1.30;;;;;;;;;;5074955;28;20722;-82
2023/10/04 05:25:20;;;;;;;1.80;1.20;;;;;;;;;;5078905;28;20401;-81
2023/10/04 05:27:46;;;;;;;2.00;1.30;;;;;;;;;;5081309;28;20412;-82
2023/10/04 05:30:16;;;;;;;1.98;1.20;;;;;;;;;;5081084;28;20384;-82
2023/10/04 05:32:45;;;;;;;2.08;1.67;;;;;;;;;;5080320;28;20846;-82
2023/10/04 05:35:14;;;;;;;2.03;1.20;;;;;;;;;;5089277;28;20400;-82
2023/10/04 05:37:44;;;;;;;3.40;1.30;;;;;;;;;;5085922;28;20378;-82
2023/10/04 05:40:16;;;;;;;1.83;1.40;;;;;;;;;;5093500;28;20392;-81
2023/10/04 05:42:46;;;;;;;2.35;1.50;;;;;;;;;;5093849;28;20374;-82
2023/10/04 05:45:12;;;;;;;2.63;1.30;;;;;;;;;;5093858;28;20417;-82
2023/10/04 05:47:39;;;;;;;2.00;1.40;;;;;;;;;;5069035;28;20431;-82
2023/10/04 05:50:07;;;;;;;2.33;1.40;;;;;;;;;;5085243;28;20370;-81
2023/10/04 05:52:33;;;;;;;1.92;1.52;;;;;;;;;;5090770;28;20390;-82
2023/10/04 05:55:00;;;;;;;2.60;1.90;;;;;;;;;;5083054;28;20446;-83
2023/10/04 05:57:26;;;;;;;2.30;1.20;;;;;;;;;;5076038;28;20390;-82
2023/10/04 05:59:52;;;;;;;2.38;1.52;;;;;;;;;;5076061;28;20384;-83
2023/10/04 06:02:18;;;;;;;2.80;1.42;;;;;;;;;;5076983;28;20380;-82
2023/10/04 06:04:47;;;;;;;1.92;1.20;;;;;;;;;;5063257;28;20416;-83
2023/10/04 06:07:13;;;;;;;2.08;1.40;;;;;;;;;;5082415;28;20807;-82
2023/10/04 06:09:42;;;;;;;2.92;1.70;;;;;;;;;;5081427;28;20379;-83
2023/10/04 06:12:11;;;;;;;1.52;1.27;;;;;;;;;;5089472;28;20456;-82
2023/10/04 06:14:37;;;;;;;3.10;1.57;;;;;;;;;;5070317;28;20501;-82
2023/10/04 06:17:07;;;;;;;1.48;1.30;;;;;;;;;;5094789;28;20392;-82
2023/10/04 06:19:32;;;;;;;1.90;1.40;;;;;;;;;;5097724;28;20900;-81
2023/10/04 06:21:59;;;;;;;2.38;1.65;;;;;;;;;;5099115;28;20378;-80
2023/10/04 06:24:25;;;;;;;1.95;1.35;;;;;;;;;;5099215;28;20370;-81
2023/10/04 06:26:51;;;;;;;2.07;1.50;;;;;;;;;;5099343;28;20724;-80
2023/10/04 06:29:17;;;;;;;2.17;1.50;;;;;;;;;;5079235;28;20375;-81
2023/10/04 06:31:43;;;;;;;1.75;1.30;;;;;;;;;;5078910;28;20391;-81
2023/10/04 06:34:09;;;;;;;2.13;1.45;;;;;;;;;;5095778;28;20462;-80
2023/10/04 06:36:35;;;;;;;2.72;1.65;;;;;;;;;;5093525;28;20523;-81
2023/10/04 06:39:00;;;;;;;2.20;1.50;;;;;;;;;;5099520;28;20386;-81
2023/10/04 06:41:27;;;;;;;2.05;1.55;;;;;;;;;;5097488;28;20386;-80
2023/10/04 06:43:53;;;;;;;2.55;1.30;;;;;;;;;;5089159;28;20459;-81
2023/10/04 06:46:19;;;;;;;2.15;1.40;;;;;;;;;;5095987;28;20438;-81
2023/10/04 06:48:45;;;;;;;2.33;1.40;;;;;;;;;;5075352;28;20374;-80
2023/10/04 06:51:11;;;;;;;3.35;1.98;;;;;;;;;;5096242;28;20398;-81
2023/10/04 06:53:43;;;;;;;3.58;1.75;;;;;;;;;;5089817;28;20388;-79
2023/10/04 06:56:09;;;;;;;2.22;1.65;;;;;;;;;;5081201;28;20392;-80
2023/10/04 06:58:37;;;;;;;2.38;1.42;;;;;;;;;;5089065;28;20409;-80
2023/10/04 07:01:03;;;;;;;2.15;1.45;;;;;;;;;;5096534;28;20707;-80
2023/10/04 07:03:29;;;;;;;1.50;1.40;;;;;;;;;;5092379;28;20387;-80
2023/10/04 07:05:55;;;;;;;2.38;1.55;;;;;;;;;;5088446;28;20440;-81
2023/10/04 07:08:21;;;;;;;3.55;1.40;;;;;;;;;;5088846;28;20790;-82
2023/10/04 07:10:47;;;;;;;2.38;1.77;;;;;;;;;;5097845;28;20380;-81
2023/10/04 07:13:14;;;;;;;2.35;1.40;;;;;;;;;;5098136;28;20386;-82
2023/10/04 07:15:41;;;;;;;2.23;1.47;;;;;;;;;;5097899;28;20746;-82
2023/10/04 07:18:09;;;;;;;2.42;1.58;;;;;;;;;;5093581;28;20381;-82
2023/10/04 07:20:36;;;;;;;2.60;1.40;;;;;;;;;;5085012;28;20380;-82
2023/10/04 07:23:07;;;;;;;1.95;1.42;;;;;;;;;;5093246;28;20378;-81
2023/10/04 07:25:37;;;;;;;1.70;1.40;;;;;;;;;;5087267;28;20411;-81
2023/10/04 07:28:04;;;;;;;2.90;1.45;;;;;;;;;;5082659;28;20829;-81
2023/10/04 07:30:30;;;;;;;2.00;1.40;;;;;;;;;;5081955;28;20833;-82
2023/10/04 07:33:00;;;;;;;3.22;1.50;;;;;;;;;;5082839;28;20391;-82
2023/10/04 07:35:27;;;;;;;3.70;1.40;;;;;;;;;;5083208;28;20384;-82
2023/10/04 07:37:53;;;;;;;1.90;1.23;;;;;;;;;;5082812;28;20384;-82
2023/10/04 07:40:22;;;;;;;1.75;1.27;;;;;;;;;;5082550;28;20417;-82
2023/10/04 07:42:52;;;;;;;2.22;1.58;;;;;;;;;;5081443;28;20860;-82
2023/10/04 07:45:18;;;;;;;2.67;1.50;;;;;;;;;;5081586;28;20897;-82
2023/10/04 07:47:45;;;;;;;1.85;1.30;;;;;;;;;;5082864;28;20376;-82
2023/10/04 07:50:13;;;;;;;1.67;1.30;;;;;;;;;;5083910;28;20380;-82
2023/10/04 07:52:40;;;;;;;2.80;1.60;;;;;;;;;;5082026;28;20770;-82
2023/10/04 07:55:12;;;;;;;2.15;1.58;;;;;;;;;;5082969;28;20379;-82
2023/10/04 07:57:41;;;;;;;2.38;1.60;;;;;;;;;;5092001;28;20429;-82
2023/10/04 08:00:14;;;;;;;2.13;1.63;;;;;;;;;;5093384;28;20414;-82
2023/10/04 08:02:49;;;;;;;2.65;1.52;;;;;;;;;;5084283;28;20387;-82
2023/10/04 08:05:20;;;;;;;2.95;1.60;;;;;;;;;;5092915;28;20916;-82
2023/10/04 08:07:49;;;;;;;2.30;1.40;;;;;;;;;;5101857;28;20400;-82
2023/10/04 08:10:16;;;;;;;2.25;1.55;;;;;;;;;;5106271;28;20702;-82
2023/10/04 08:12:42;;;;;;;2.13;1.65;;;;;;;;;;5112612;28;20382;-82
2023/10/04 08:15:09;;;;;;;3.08;1.50;;;;;;;;;;5091438;28;20380;-82
2023/10/04 08:17:35;;;;;;;2.77;1.93;;;;;;;;;;5080263;28;20384;-82
2023/10/04 08:20:03;;;;;;;2.95;2.35;;;;;;;;;;5080629;28;20713;-82
2023/10/04 08:22:30;;;;;;;3.58;2.70;;;;;;;;;;5103154;28;20400;-81
2023/10/04 08:24:56;;;;;;;3.05;2.47;;;;;;;;;;5081202;28;20867;-82
2023/10/04 08:27:24;;;;;;;4.40;2.50;;;;;;;;;;5080472;28;20383;-82
2023/10/04 08:29:50;;;;;;;5.68;1.67;;;;;;;;;;5082047;28;20849;-82
2023/10/04 08:32:17;;;;;;;3.20;1.77;;;;;;;;;;5082636;28;20375;-81
2023/10/04 08:34:45;;;;;;;3.42;2.05;;;;;;;;;;5081756;28;20388;-81
2023/10/04 08:37:13;;;;;;;2.20;1.50;;;;;;;;;;5092633;28;20828;-81
2023/10/04 08:39:40;;;;;;;2.13;1.50;;;;;;;;;;5099683;28;20378;-82
2023/10/04 08:42:06;;;;;;;3.63;1.67;;;;;;;;;;5082111;28;20375;-81
2023/10/04 08:44:32;;;;;;;2.10;1.48;;;;;;;;;;5080192;28;20777;-82
2023/10/04 08:47:00;;;;;;;2.70;1.20;;;;;;;;;;5081686;28;20419;-82
2023/10/04 08:49:29;;;;;;;2.80;1.63;;;;;;;;;;5082032;28;20406;-82
2023/10/04 08:52:00;;;;;;;2.78;1.58;;;;;;;;;;5080885;28;20510;-82
2023/10/04 08:54:27;;;;;;;2.63;1.40;;;;;;;;;;5080013;28;20390;-81
2023/10/04 08:57:06;;;;;;;2.63;1.33;;;;;;;;;;5095600;28;20388;-82
2023/10/04 08:59:33;;;;;;;2.30;1.50;;;;;;;;;;5080133;28;20387;-81
2023/10/04 09:02:01;;;;;;;4.43;1.30;;;;;;;;;;5079657;28;20466;-82
2023/10/04 09:04:27;;;;;;;2.00;1.33;;;;;;;;;;5079495;28;20371;-82
2023/10/04 09:06:53;;;;;;;4.20;1.50;;;;;;;;;;5079674;28;20388;-82
2023/10/04 09:09:20;;;;;;;2.75;1.45;;;;;;;;;;5080415;28;20380;-81
2023/10/04 09:11:46;;;;;;;2.03;1.60;;;;;;;;;;5079978;28;20391;-82
2023/10/04 09:14:14;;;;;;;4.40;1.50;;;;;;;;;;5095464;28;20378;-82
2023/10/04 09:16:40;;;;;;;2.00;1.48;;;;;;;;;;5079580;28;20443;-81
2023/10/04 09:19:07;;;;;;;3.60;1.40;;;;;;;;;;5083210;28;20416;-81
2023/10/04 09:21:33;;;;;;;2.42;1.85;;;;;;;;;;5091094;28;20387;-82
2023/10/04 09:24:09;;;;;;;3.85;1.40;;;;;;;;;;5095899;28;20386;-81
2023/10/04 09:26:36;;;;;;;2.80;1.30;;;;;;;;;;5091752;28;20920;-82
2023/10/04 09:29:03;;;;;;;2.80;1.60;;;;;;;;;;5081512;28;20402;-81
2023/10/04 09:31:30;;;;;;;5.07;1.40;;;;;;;;;;5094644;28;20721;-81
2023/10/04 09:34:11;;;;;;;2.13;1.45;;;;;;;;;;5080392;28;20454;-82
2023/10/04 09:36:38;;;;;;;2.95;1.70;;;;;;;;;;5092660;28;20380;-82
2023/10/04 09:39:15;;;;;;;4.70;1.90;;;;;;;;;;5079242;28;20392;-81
2023/10/04 09:41:42;;;;;;;3.40;1.92;;;;;;;;;;5081193;28;20374;-82
2023/10/04 09:44:27;;;;;;;3.17;1.73;;;;;;;;;;5081339;28;20849;-82
2023/10/04 09:46:54;;;;;;;3.55;1.92;;;;;;;;;;5083119;28;20399;-82
2023/10/04 09:49:21;;;;;;;2.17;1.67;;;;;;;;;;5086280;28;20371;-82
2023/10/04 09:51:47;;;;;;;3.25;1.60;;;;;;;;;;5093993;28;20385;-81
2023/10/04 09:54:16;;;;;;;2.70;1.48;;;;;;;;;;5106316;28;20404;-82
2023/10/04 09:56:43;;;;;;;3.63;1.80;;;;;;;;;;5090997;28;20411;-81
2023/10/04 09:59:11;;;;;;;2.63;1.60;;;;;;;;;;5105202;28;20461;-84
2023/10/04 10:01:41;;;;;;;2.55;1.70;;;;;;;;;;5105863;28;20856;-85
2023/10/04 10:04:11;;;;;;;3.43;1.60;;;;;;;;;;5097839;28;20437;-84
2023/10/04 10:06:45;;;;;;;3.42;1.80;;;;;;;;;;5089565;28;20896;-84
2023/10/04 10:09:16;;;;;;;2.30;1.37;;;;;;;;;;5087139;28;20409;-86
2023/10/04 10:11:45;;;;;;;3.00;1.50;;;;;;;;;;5087230;28;20383;-86
2023/10/04 10:14:14;;;;;;;3.47;1.42;;;;;;;;;;5106102;28;20397;-86
2023/10/04 10:16:41;;;;;;;3.47;1.60;;;;;;;;;;5097112;28;20382;-85
2023/10/04 10:19:08;;;;;;;2.40;1.40;;;;;;;;;;5106616;28;20414;-85
2023/10/04 10:22:16;;;;;;;2.90;1.80;;;;;;;;;;5098267;28;20378;-85
2023/10/04 10:25:11;;;;;;;2.15;1.40;;;;;;;;;;5054344;28;20914;-85
2023/10/04 10:27:37;;;;;;;2.38;1.40;;;;;;;;;;5088181;28;20783;-86
2023/10/04 10:30:09;;;;;;;2.17;1.85;;;;;;;;;;5086636;28;20451;-84
2023/10/04 10:32:35;;;;;;;2.38;1.50;;;;;;;;;;5099733;28;20763;-84
2023/10/04 10:35:07;;;;;;;3.80;1.80;;;;;;;;;;5095076;28;20833;-84
2023/10/04 10:37:35;;;;;;;2.37;1.43;;;;;;;;;;5087778;28;20403;-84
2023/10/04 10:40:08;;;;;;;4.60;1.65;;;;;;;;;;5085648;28;20384;-84
2023/10/04 10:42:53;;;;;;;3.38;1.40;;;;;;;;;;5084413;28;20430;-84
2023/10/04 10:45:29;;;;;;;1.85;1.42;;;;;;;;;;5090482;28;20415;-84
2023/10/04 10:47:57;;;;;;;4.25;1.73;;;;;;;;;;5083655;28;20429;-85
2023/10/04 10:50:33;;;;;;;2.05;1.40;;;;;;;;;;5084291;28;20422;-85
2023/10/04 10:53:06;;;;;;;2.58;1.73;;;;;;;;;;5081187;28;20842;-85
2023/10/04 10:55:35;;;;;;;2.60;1.60;;;;;;;;;;5081639;28;20467;-85
2023/10/04 10:58:02;;;;;;;3.75;2.08;;;;;;;;;;5079062;28;20376;-86
2023/10/04 11:00:34;;;;;;;2.55;1.75;;;;;;;;;;5092538;28;20475;-84
2023/10/04 11:03:01;;;;;;;2.78;1.80;;;;;;;;;;5083348;28;20717;-84
2023/10/04 11:05:27;;;;;;;3.92;1.88;;;;;;;;;;5084806;28;20412;-84
2023/10/04 11:07:54;;;;;;;3.90;2.10;;;;;;;;;;5084717;28;20828;-84
2023/10/04 11:10:23;;;;;;;2.77;1.80;;;;;;;;;;5097376;28;20465;-84
2023/10/04 11:12:51;;;;;;;3.95;1.83;;;;;;;;;;5091145;28;20848;-84
2023/10/04 11:15:20;;;;;;;2.60;1.77;;;;;;;;;;5090325;28;20383;-85
2023/10/04 11:17:47;;;;;;;3.10;1.95;;;;;;;;;;5090741;28;20719;-84
2023/10/04 11:20:17;;;;;;;2.83;1.85;;;;;;;;;;5090596;28;20407;-84
2023/10/04 11:22:44;;;;;;;4.40;2.00;;;;;;;;;;5089000;28;20382;-85
2023/10/04 11:25:12;;;;;;;12.57;2.25;;;;;;;;;;5105908;28;20398;-85
2023/10/04 11:27:40;;;;;;;5.05;1.88;;;;;;;;;;5086392;28;20419;-85
2023/10/04 11:30:07;;;;;;;2.40;1.80;;;;;;;;;;5093059;28;20447;-85
2023/10/04 11:32:34;;;;;;;2.25;1.45;;;;;;;;;;5073058;28;20386;-84
2023/10/04 11:35:08;;;;;;;3.33;1.58;;;;;;;;;;5093953;28;20410;-85
2023/10/04 11:37:34;;;;;;;2.72;1.60;;;;;;;;;;5094728;28;20380;-85
2023/10/04 11:40:00;;;;;;;2.70;1.40;;;;;;;;;;5099420;28;20382;-85
2023/10/04 11:42:26;;;;;;;2.17;1.43;;;;;;;;;;5091072;28;20388;-85
2023/10/04 11:44:53;;;;;;;2.20;1.55;;;;;;;;;;5095131;28;20408;-85
2023/10/04 11:47:32;;;;;;;2.65;1.60;;;;;;;;;;5098861;28;20383;-84
2023/10/04 11:49:59;;;;;;;2.88;1.40;;;;;;;;;;5099013;28;20434;-84
2023/10/04 11:52:32;;;;;;;2.08;1.50;;;;;;;;;;5104493;28;20732;-85
2023/10/04 11:54:59;;;;;;;2.40;1.50;;;;;;;;;;5097992;28;20386;-84
2023/10/04 11:57:25;;;;;;;1.98;1.45;;;;;;;;;;5103634;28;20582;-85
2023/10/04 11:59:51;;;;;;;2.67;1.50;;;;;;;;;;5096167;28;20462;-84
2023/10/04 12:02:17;;;;;;;1.75;1.20;;;;;;;;;;5104904;28;20389;-84
2023/10/04 12:04:45;;;;;;;3.08;1.55;;;;;;;;;;5104320;28;20412;-84
2023/10/04 12:07:11;;;;;;;1.92;1.30;;;;;;;;;;5090598;28;20459;-84
2023/10/04 12:09:37;;;;;;;2.22;1.75;;;;;;;;;;5086589;28;20465;-82
2023/10/04 12:12:07;;;;;;;1.88;1.30;;;;;;;;;;5091425;28;20382;-83
2023/10/04 12:14:34;;;;;;;2.30;1.40;;;;;;;;;;5098028;28;20445;-83
2023/10/04 12:17:03;;;;;;;1.58;1.30;;;;;;;;;;5084699;28;20380;-83
2023/10/04 12:19:33;;;;;;;1.70;1.40;;;;;;;;;;5085737;28;20371;-83
2023/10/04 12:22:02;;;;;;;1.77;1.30;;;;;;;;;;5084885;28;20372;-83
2023/10/04 12:24:30;;;;;;;3.10;2.55;;;;;;;;;;5084858;28;20411;-83
2023/10/04 12:26:58;;;;;;;2.00;1.40;;;;;;;;;;5097632;28;20390;-83
2023/10/04 12:29:24;;;;;;;1.92;1.30;;;;;;;;;;5095147;28;20384;-83
2023/10/04 12:31:50;;;;;;;2.08;1.40;;;;;;;;;;5095156;28;20419;-83
2023/10/04 12:34:16;;;;;;;1.70;1.35;;;;;;;;;;5085081;28;20407;-83
2023/10/04 12:36:42;;;;;;;2.25;1.30;;;;;;;;;;5085702;28;20394;-83
2023/10/04 12:39:08;;;;;;;2.47;1.23;;;;;;;;;;5086454;28;20854;-83
2023/10/04 12:41:34;;;;;;;2.13;1.40;;;;;;;;;;5091986;28;20386;-83
2023/10/04 12:44:02;;;;;;;1.80;1.10;;;;;;;;;;5093184;28;20850;-83
2023/10/04 12:46:28;;;;;;;2.28;1.55;;;;;;;;;;5090878;28;20435;-83
2023/10/04 12:48:55;;;;;;;3.03;1.30;;;;;;;;;;5092814;28;20426;-83
2023/10/04 12:51:21;;;;;;;1.75;1.30;;;;;;;;;;5084307;28;20829;-82
2023/10/04 12:53:48;;;;;;;2.22;1.50;;;;;;;;;;5084330;28;20380;-82
2023/10/04 12:56:16;;;;;;;2.28;1.40;;;;;;;;;;5085221;28;20887;-83
2023/10/04 12:58:42;;;;;;;2.13;1.42;;;;;;;;;;5092621;28;20412;-82
2023/10/04 13:01:10;;;;;;;1.50;1.30;;;;;;;;;;5091613;28;20383;-83
2023/10/04 13:03:36;;;;;;;2.05;1.27;;;;;;;;;;5083302;28;20384;-83
2023/10/04 13:06:03;;;;;;;2.70;1.60;;;;;;;;;;5098371;28;20410;-83
2023/10/04 13:08:29;;;;;;;1.73;1.40;;;;;;;;;;5090303;28;20394;-83
2023/10/04 13:10:55;;;;;;;1.92;1.10;;;;;;;;;;5094319;28;20461;-83
2023/10/04 13:13:21;;;;;;;2.38;1.45;;;;;;;;;;5094205;28;20419;-83
2023/10/04 13:15:48;;;;;;;2.70;1.40;;;;;;;;;;5084047;28;20380;-82
2023/10/04 13:18:14;;;;;;;1.50;1.15;;;;;;;;;;5081317;28;20876;-82
2023/10/04 13:20:40;;;;;;;1.83;1.38;;;;;;;;;;5080094;28;20379;-85
2023/10/04 13:23:06;;;;;;;1.80;1.38;;;;;;;;;;5089557;28;20385;-82
2023/10/04 13:25:33;;;;;;;2.97;1.27;;;;;;;;;;5088984;28;20881;-82
2023/10/04 13:28:00;;;;;;;3.58;1.42;;;;;;;;;;5084330;28;20403;-84
2023/10/04 13:30:27;;;;;;;6.43;2.00;;;;;;;;;;5097790;28;20748;-82
2023/10/04 13:32:54;;;;;;;1.90;1.50;;;;;;;;;;5086280;28;20402;-84
2023/10/04 13:35:20;;;;;;;2.30;1.48;;;;;;;;;;5084117;28;20384;-82
2023/10/04 13:37:52;;;;;;;2.95;1.42;;;;;;;;;;5085212;28;20395;-84
2023/10/04 13:40:22;;;;;;;1.90;1.47;;;;;;;;;;5084612;28;20380;-82
2023/10/04 13:42:51;;;;;;;2.83;1.60;;;;;;;;;;5084014;28;20375;-84
2023/10/04 13:45:18;;;;;;;3.88;1.60;;;;;;;;;;5084601;28;20444;-82
2023/10/04 13:47:45;;;;;;;1.73;1.35;;;;;;;;;;5098665;28;20861;-82
2023/10/04 13:50:12;;;;;;;2.20;1.30;;;;;;;;;;5090226;28;20386;-82
2023/10/04 13:52:39;;;;;;;2.42;1.58;;;;;;;;;;5091601;28;20463;-82
2023/10/04 13:55:06;;;;;;;2.88;1.40;;;;;;;;;;5093653;28;20380;-82
2023/10/04 13:57:32;;;;;;;1.92;1.30;;;;;;;;;;5095375;28;20457;-82
2023/10/04 13:59:59;;;;;;;1.92;1.50;;;;;;;;;;5094784;28;20380;-82
2023/10/04 14:02:25;;;;;;;1.70;1.20;;;;;;;;;;5081752;28;20918;-82
2023/10/04 14:04:51;;;;;;;2.25;1.23;;;;;;;;;;5088426;28;20463;-82
2023/10/04 14:07:17;;;;;;;2.45;1.40;;;;;;;;;;5087759;28;20384;-82
2023/10/04 14:09:43;;;;;;;2.43;1.60;;;;;;;;;;5094069;28;20411;-82
2023/10/04 14:12:12;;;;;;;2.28;1.40;;;;;;;;;;5082589;28;20828;-82
2023/10/04 14:14:38;;;;;;;1.80;1.25;;;;;;;;;;5099633;28;20386;-82
2023/10/04 14:17:08;;;;;;;1.77;1.45;;;;;;;;;;5089823;28;20413;-82
2023/10/04 14:19:36;;;;;;;2.38;1.30;;;;;;;;;;5090619;28;20386;-82
2023/10/04 14:22:05;;;;;;;1.77;1.35;;;;;;;;;;5093549;28;20747;-82
2023/10/04 14:24:32;;;;;;;1.90;1.20;;;;;;;;;;5082196;28;20878;-82
2023/10/04 14:27:01;;;;;;;1.92;1.33;;;;;;;;;;5095847;28;20422;-82
2023/10/04 14:29:27;;;;;;;3.67;1.52;;;;;;;;;;5088723;28;20859;-82
2023/10/04 14:31:54;;;;;;;2.50;1.27;;;;;;;;;;5094562;28;20858;-82
2023/10/04 14:34:21;;;;;;;2.53;1.55;;;;;;;;;;5084266;28;20403;-82
2023/10/04 14:36:48;;;;;;;2.70;1.40;;;;;;;;;;5086463;28;20795;-82
2023/10/04 14:39:14;;;;;;;2.08;1.20;;;;;;;;;;5085687;28;20384;-82
2023/10/04 14:41:41;;;;;;;2.50;1.25;;;;;;;;;;5085218;28;20384;-82
2023/10/04 14:44:07;;;;;;;1.45;1.20;;;;;;;;;;5086915;28;20384;-82
2023/10/04 14:46:33;;;;;;;2.30;1.33;;;;;;;;;;5090571;28;20446;-82
2023/10/04 14:48:59;;;;;;;1.52;1.25;;;;;;;;;;5096245;28;20428;-82